Sunset Hill, Washington
Current Conditions -  °F | °C
As of 12:53 AM on Sunday 26 Oct 2014 (Local Time) from KGEG Reporting Station
Scattered Clouds Scattered Clouds  
Wind Chill: 40°   Ceiling: Unl
Heat Index: 49°   Visibility: 10mi
Dew Point: 39°   Wind: 32mph
Humidity: 69%   Direction: 210°SSW
Pressure: 29.67"   Gusts: 44mph
Location:  47.657°N, 117.544°W
Report Text: KGEG 260753Z 21028G38KT 10SM FEW060 SCT090 SCT120 09/04 A2967 RMK AO2 PK WND 22038/0751 SLP045 T00940039 402060067
Loading
Personal Weather Stations






























Interactive Weather Map
Tropical Storm Tracking
New forecast layout! Learn more

10-Day Weather Forecast

Advertisements
Track Severe Weather on mobile